sensor_id;sensor_type;location;lat;lon;timestamp;noise_LAeq;noise_LA_min;noise_LA_max;noise_LA01;noise_LA95
71020;Laerm;58902;51.436;5.980;2022-07-19T00:00:00;33.53;31.20;37.20;;
71020;Laerm;58902;51.436;5.980;2022-07-19T00:00:14;33.71;32.01;35.27;;
71020;Laerm;58902;51.436;5.980;2022-07-19T00:00:25;33.84;32.07;37.21;;
71020;Laerm;58902;51.436;5.980;2022-07-19T00:00:35;33.25;31.27;36.19;;
71020;Laerm;58902;51.436;5.980;2022-07-19T00:00:46;33.77;32.03;36.86;;
71020;Laerm;58902;51.436;5.980;2022-07-19T00:00:57;35.94;33.02;39.26;;
71020;Laerm;58902;51.436;5.980;2022-07-19T00:01:07;43.18;37.38;47.34;;
71020;Laerm;58902;51.436;5.980;2022-07-19T00:01:17;41.17;35.95;46.02;;
71020;Laerm;58902;51.436;5.980;2022-07-19T00:01:28;37.64;32.79;42.18;;
71020;Laerm;58902;51.436;5.980;2022-07-19T00:01:38;33.89;31.54;37.67;;
71020;Laerm;58902;51.436;5.980;2022-07-19T00:01:48;33.04;31.12;40.96;;
71020;Laerm;58902;51.436;5.980;2022-07-19T00:01:59;39.45;31.79;61.51;;
71020;Laerm;58902;51.436;5.980;2022-07-19T00:02:09;36.39;33.12;40.66;;
71020;Laerm;58902;51.436;5.980;2022-07-19T00:02:20;45.60;36.11;52.25;;
71020;Laerm;58902;51.436;5.980;2022-07-19T00:02:30;41.05;35.37;45.09;;
71020;Laerm;58902;51.436;5.980;2022-07-19T00:02:40;35.33;32.31;38.34;;
71020;Laerm;58902;51.436;5.980;2022-07-19T00:02:51;36.08;33.57;38.17;;
71020;Laerm;58902;51.436;5.980;2022-07-19T00:03:05;36.14;33.65;38.37;;
71020;Laerm;58902;51.436;5.980;2022-07-19T00:03:15;36.13;34.01;38.04;;
71020;Laerm;58902;51.436;5.980;2022-07-19T00:03:27;34.72;31.66;38.04;;
71020;Laerm;58902;51.436;5.980;2022-07-19T00:03:37;33.52;31.82;35.82;;
71020;Laerm;58902;51.436;5.980;2022-07-19T00:03:48;33.26;31.54;35.51;;
71020;Laerm;58902;51.436;5.980;2022-07-19T00:03:58;33.03;31.49;35.05;;
71020;Laerm;58902;51.436;5.980;2022-07-19T00:04:09;33.29;31.26;35.35;;
71020;Laerm;58902;51.436;5.980;2022-07-19T00:04:19;33.29;31.59;35.64;;
71020;Laerm;58902;51.436;5.980;2022-07-19T00:04:29;33.44;31.73;36.47;;
71020;Laerm;58902;51.436;5.980;2022-07-19T00:04:40;33.15;31.31;35.13;;
71020;Laerm;58902;51.436;5.980;2022-07-19T00:04:50;33.01;30.88;34.54;;
71020;Laerm;58902;51.436;5.980;2022-07-19T00:05:01;33.06;30.75;34.56;;
71020;Laerm;58902;51.436;5.980;2022-07-19T00:05:12;32.98;30.91;34.39;;
71020;Laerm;58902;51.436;5.980;2022-07-19T00:05:23;32.60;30.50;34.61;;
71020;Laerm;58902;51.436;5.980;2022-07-19T00:05:33;32.54;30.52;34.22;;
71020;Laerm;58902;51.436;5.980;2022-07-19T00:05:44;32.36;29.98;36.34;;
71020;Laerm;58902;51.436;5.980;2022-07-19T00:05:54;32.43;30.51;34.12;;
71020;Laerm;58902;51.436;5.980;2022-07-19T00:06:05;32.83;30.65;34.82;;
71020;Laerm;58902;51.436;5.980;2022-07-19T00:06:15;32.63;30.28;35.13;;
71020;Laerm;58902;51.436;5.980;2022-07-19T00:06:25;33.00;30.86;35.95;;
71020;Laerm;58902;51.436;5.980;2022-07-19T00:06:39;33.15;31.41;35.84;;
71020;Laerm;58902;51.436;5.980;2022-07-19T00:06:49;33.22;30.92;35.48;;
71020;Laerm;58902;51.436;5.980;2022-07-19T00:06:59;33.99;31.88;36.37;;
71020;Laerm;58902;51.436;5.980;2022-07-19T00:07:10;33.83;31.93;37.28;;
71020;Laerm;58902;51.436;5.980;2022-07-19T00:07:20;33.64;31.23;37.38;;
71020;Laerm;58902;51.436;5.980;2022-07-19T00:07:31;33.51;31.63;38.91;;
71020;Laerm;58902;51.436;5.980;2022-07-19T00:07:41;33.34;31.12;37.81;;
71020;Laerm;58902;51.436;5.980;2022-07-19T00:07:52;35.01;31.78;38.33;;
71020;Laerm;58902;51.436;5.980;2022-07-19T00:08:05;34.07;32.50;35.67;;
71020;Laerm;58902;51.436;5.980;2022-07-19T00:08:15;34.23;32.04;39.11;;
71020;Laerm;58902;51.436;5.980;2022-07-19T00:08:25;36.45;32.58;40.13;;
71020;Laerm;58902;51.436;5.980;2022-07-19T00:08:38;37.89;34.46;40.44;;
71020;Laerm;58902;51.436;5.980;2022-07-19T00:08:49;35.61;32.35;40.80;;
71020;Laerm;58902;51.436;5.980;2022-07-19T00:08:59;33.73;31.57;36.51;;
71020;Laerm;58902;51.436;5.980;2022-07-19T00:09:10;33.30;31.73;35.30;;
71020;Laerm;58902;51.436;5.980;2022-07-19T00:09:21;33.28;31.31;34.96;;
71020;Laerm;58902;51.436;5.980;2022-07-19T00:09:31;33.22;31.57;35.50;;
71020;Laerm;58902;51.436;5.980;2022-07-19T00:09:42;33.34;31.33;42.79;;
71020;Laerm;58902;51.436;5.980;2022-07-19T00:09:54;32.99;31.01;37.12;;
71020;Laerm;58902;51.436;5.980;2022-07-19T00:10:06;32.81;30.80;35.71;;
71020;Laerm;58902;51.436;5.980;2022-07-19T00:10:18;32.57;30.61;34.46;;
71020;Laerm;58902;51.436;5.980;2022-07-19T00:10:29;32.86;31.33;34.76;;
71020;Laerm;58902;51.436;5.980;2022-07-19T00:10:39;33.38;31.51;35.29;;
71020;Laerm;58902;51.436;5.980;2022-07-19T00:10:50;33.35;30.54;35.13;;
71020;Laerm;58902;51.436;5.980;2022-07-19T00:11:00;32.83;30.69;34.56;;
71020;Laerm;58902;51.436;5.980;2022-07-19T00:11:10;32.93;31.04;34.91;;
71020;Laerm;58902;51.436;5.980;2022-07-19T00:11:21;32.81;31.30;34.53;;
71020;Laerm;58902;51.436;5.980;2022-07-19T00:11:32;32.97;30.93;35.03;;
71020;Laerm;58902;51.436;5.980;2022-07-19T00:11:42;32.86;30.60;34.90;;
71020;Laerm;58902;51.436;5.980;2022-07-19T00:11:55;33.04;31.25;35.32;;
71020;Laerm;58902;51.436;5.980;2022-07-19T00:12:05;32.96;31.26;36.64;;
71020;Laerm;58902;51.436;5.980;2022-07-19T00:12:16;32.96;31.53;34.88;;
71020;Laerm;58902;51.436;5.980;2022-07-19T00:12:26;32.96;30.96;35.87;;
71020;Laerm;58902;51.436;5.980;2022-07-19T00:12:37;32.96;31.08;35.94;;
71020;Laerm;58902;51.436;5.980;2022-07-19T00:12:48;33.03;30.87;36.74;;
71020;Laerm;58902;51.436;5.980;2022-07-19T00:12:59;33.31;31.11;39.49;;
71020;Laerm;58902;51.436;5.980;2022-07-19T00:13:09;33.34;31.64;37.37;;
71020;Laerm;58902;51.436;5.980;2022-07-19T00:13:19;33.10;31.36;35.39;;
71020;Laerm;58902;51.436;5.980;2022-07-19T00:13:31;33.00;31.21;35.02;;
71020;Laerm;58902;51.436;5.980;2022-07-19T00:13:41;33.01;30.98;34.75;;
71020;Laerm;58902;51.436;5.980;2022-07-19T00:13:52;33.36;30.76;35.45;;
71020;Laerm;58902;51.436;5.980;2022-07-19T00:14:03;33.19;31.23;35.19;;
71020;Laerm;58902;51.436;5.980;2022-07-19T00:14:13;33.03;31.09;35.40;;
71020;Laerm;58902;51.436;5.980;2022-07-19T00:14:24;33.12;30.82;36.86;;
71020;Laerm;58902;51.436;5.980;2022-07-19T00:14:34;32.80;31.35;35.54;;
71020;Laerm;58902;51.436;5.980;2022-07-19T00:14:44;32.62;30.44;34.79;;
71020;Laerm;58902;51.436;5.980;2022-07-19T00:14:55;32.80;30.58;34.75;;
71020;Laerm;58902;51.436;5.980;2022-07-19T00:15:06;32.52;30.51;34.10;;
71020;Laerm;58902;51.436;5.980;2022-07-19T00:15:17;32.91;30.82;34.35;;
71020;Laerm;58902;51.436;5.980;2022-07-19T00:15:27;32.94;31.50;34.75;;
71020;Laerm;58902;51.436;5.980;2022-07-19T00:15:38;32.79;30.73;36.12;;
71020;Laerm;58902;51.436;5.980;2022-07-19T00:15:48;32.66;30.39;34.56;;
71020;Laerm;58902;51.436;5.980;2022-07-19T00:15:59;32.59;30.78;33.90;;
71020;Laerm;58902;51.436;5.980;2022-07-19T00:16:09;32.92;30.85;40.19;;
71020;Laerm;58902;51.436;5.980;2022-07-19T00:16:19;32.73;30.50;34.75;;
71020;Laerm;58902;51.436;5.980;2022-07-19T00:16:30;32.94;31.13;41.70;;
71020;Laerm;58902;51.436;5.980;2022-07-19T00:16:40;32.60;30.92;34.15;;
71020;Laerm;58902;51.436;5.980;2022-07-19T00:16:51;32.78;30.85;34.86;;
71020;Laerm;58902;51.436;5.980;2022-07-19T00:17:01;32.96;31.15;35.01;;
71020;Laerm;58902;51.436;5.980;2022-07-19T00:17:12;33.11;31.22;36.12;;
71020;Laerm;58902;51.436;5.980;2022-07-19T00:17:25;34.13;31.52;37.47;;
71020;Laerm;58902;51.436;5.980;2022-07-19T00:17:38;33.47;31.59;35.82;;
71020;Laerm;58902;51.436;5.980;2022-07-19T00:17:49;33.91;31.61;36.73;;
71020;Laerm;58902;51.436;5.980;2022-07-19T00:17:59;36.25;33.18;41.15;;
71020;Laerm;58902;51.436;5.980;2022-07-19T00:18:10;39.06;35.06;43.41;;
71020;Laerm;58902;51.436;5.980;2022-07-19T00:18:20;35.64;33.12;39.49;;
71020;Laerm;58902;51.436;5.980;2022-07-19T00:18:30;34.36;31.80;40.05;;
71020;Laerm;58902;51.436;5.980;2022-07-19T00:18:41;34.28;32.21;37.70;;
71020;Laerm;58902;51.436;5.980;2022-07-19T00:18:52;35.55;33.41;37.78;;
71020;Laerm;58902;51.436;5.980;2022-07-19T00:19:03;35.49;33.69;37.05;;
71020;Laerm;58902;51.436;5.980;2022-07-19T00:19:13;35.10;33.29;38.33;;
71020;Laerm;58902;51.436;5.980;2022-07-19T00:19:23;38.76;32.54;45.11;;
71020;Laerm;58902;51.436;5.980;2022-07-19T00:19:34;40.42;35.32;44.71;;
71020;Laerm;58902;51.436;5.980;2022-07-19T00:19:44;36.74;34.80;40.25;;
71020;Laerm;58902;51.436;5.980;2022-07-19T00:19:54;38.73;36.57;41.43;;
71020;Laerm;58902;51.436;5.980;2022-07-19T00:20:05;39.88;37.52;45.14;;
71020;Laerm;58902;51.436;5.980;2022-07-19T00:20:17;43.73;40.25;49.38;;
71020;Laerm;58902;51.436;5.980;2022-07-19T00:20:27;66.42;46.51;71.11;;
71020;Laerm;58902;51.436;5.980;2022-07-19T00:20:38;66.37;63.36;72.37;;
71020;Laerm;58902;51.436;5.980;2022-07-19T00:20:48;69.14;55.41;73.83;;
71020;Laerm;58902;51.436;5.980;2022-07-19T00:20:59;46.52;38.63;55.13;;
71020;Laerm;58902;51.436;5.980;2022-07-19T00:21:09;38.80;37.10;40.82;;
71020;Laerm;58902;51.436;5.980;2022-07-19T00:21:19;36.89;32.94;41.61;;
71020;Laerm;58902;51.436;5.980;2022-07-19T00:21:30;34.27;32.95;36.17;;
71020;Laerm;58902;51.436;5.980;2022-07-19T00:21:40;34.33;33.28;35.69;;
71020;Laerm;58902;51.436;5.980;2022-07-19T00:21:51;33.95;32.70;35.36;;
71020;Laerm;58902;51.436;5.980;2022-07-19T00:22:01;34.10;32.74;35.50;;
71020;Laerm;58902;51.436;5.980;2022-07-19T00:22:12;34.19;33.04;35.73;;
71020;Laerm;58902;51.436;5.980;2022-07-19T00:22:25;33.96;32.81;35.93;;
71020;Laerm;58902;51.436;5.980;2022-07-19T00:22:35;34.00;32.33;36.14;;
71020;Laerm;58902;51.436;5.980;2022-07-19T00:22:45;35.52;32.75;42.85;;
71020;Laerm;58902;51.436;5.980;2022-07-19T00:22:56;34.35;31.99;36.67;;
71020;Laerm;58902;51.436;5.980;2022-07-19T00:23:06;35.06;32.68;38.48;;
71020;Laerm;58902;51.436;5.980;2022-07-19T00:23:16;34.38;32.44;39.30;;
71020;Laerm;58902;51.436;5.980;2022-07-19T00:23:27;33.33;31.50;37.07;;
71020;Laerm;58902;51.436;5.980;2022-07-19T00:23:37;32.54;31.01;35.01;;
71020;Laerm;58902;51.436;5.980;2022-07-19T00:23:47;32.73;30.97;35.00;;
71020;Laerm;58902;51.436;5.980;2022-07-19T00:23:58;32.70;31.12;36.67;;
71020;Laerm;58902;51.436;5.980;2022-07-19T00:24:10;32.87;31.25;35.89;;
71020;Laerm;58902;51.436;5.980;2022-07-19T00:24:20;33.00;30.95;34.62;;
71020;Laerm;58902;51.436;5.980;2022-07-19T00:24:31;32.79;30.91;35.12;;
71020;Laerm;58902;51.436;5.980;2022-07-19T00:24:41;33.01;30.87;34.59;;
71020;Laerm;58902;51.436;5.980;2022-07-19T00:24:51;33.35;31.66;36.78;;
71020;Laerm;58902;51.436;5.980;2022-07-19T00:25:02;33.14;31.24;36.90;;
71020;Laerm;58902;51.436;5.980;2022-07-19T00:25:13;33.86;31.90;36.94;;
71020;Laerm;58902;51.436;5.980;2022-07-19T00:25:24;33.66;32.00;35.35;;
71020;Laerm;58902;51.436;5.980;2022-07-19T00:25:34;33.73;32.08;35.49;;
71020;Laerm;58902;51.436;5.980;2022-07-19T00:25:44;33.74;32.32;35.62;;
71020;Laerm;58902;51.436;5.980;2022-07-19T00:25:55;33.42;31.72;35.25;;
71020;Laerm;58902;51.436;5.980;2022-07-19T00:26:05;33.51;31.39;35.24;;
71020;Laerm;58902;51.436;5.980;2022-07-19T00:26:16;33.03;31.69;34.91;;
71020;Laerm;58902;51.436;5.980;2022-07-19T00:26:26;33.05;31.73;35.40;;
71020;Laerm;58902;51.436;5.980;2022-07-19T00:26:37;33.35;31.12;42.93;;
71020;Laerm;58902;51.436;5.980;2022-07-19T00:26:47;32.85;31.16;34.59;;
71020;Laerm;58902;51.436;5.980;2022-07-19T00:26:58;32.44;30.93;34.39;;
71020;Laerm;58902;51.436;5.980;2022-07-19T00:27:08;37.05;31.12;50.22;;
71020;Laerm;58902;51.436;5.980;2022-07-19T00:27:19;32.57;30.35;34.39;;
71020;Laerm;58902;51.436;5.980;2022-07-19T00:27:29;32.21;30.73;40.86;;
71020;Laerm;58902;51.436;5.980;2022-07-19T00:27:40;32.50;30.72;33.89;;
71020;Laerm;58902;51.436;5.980;2022-07-19T00:27:51;32.21;30.36;34.68;;
71020;Laerm;58902;51.436;5.980;2022-07-19T00:28:02;32.18;30.70;34.07;;
71020;Laerm;58902;51.436;5.980;2022-07-19T00:28:12;32.24;31.00;34.46;;
71020;Laerm;58902;51.436;5.980;2022-07-19T00:28:25;32.42;30.38;36.06;;
71020;Laerm;58902;51.436;5.980;2022-07-19T00:28:35;32.51;31.05;35.69;;
71020;Laerm;58902;51.436;5.980;2022-07-19T00:28:45;32.35;30.61;35.80;;
71020;Laerm;58902;51.436;5.980;2022-07-19T00:28:56;32.43;30.56;36.23;;
71020;Laerm;58902;51.436;5.980;2022-07-19T00:29:06;32.43;30.70;34.46;;
71020;Laerm;58902;51.436;5.980;2022-07-19T00:29:17;32.44;30.83;34.27;;
71020;Laerm;58902;51.436;5.980;2022-07-19T00:29:27;32.49;30.78;35.05;;
71020;Laerm;58902;51.436;5.980;2022-07-19T00:29:37;32.56;30.77;35.33;;
71020;Laerm;58902;51.436;5.980;2022-07-19T00:29:48;32.60;30.85;34.82;;
71020;Laerm;58902;51.436;5.980;2022-07-19T00:29:59;32.78;31.11;35.10;;
71020;Laerm;58902;51.436;5.980;2022-07-19T00:30:09;32.90;31.17;34.58;;
71020;Laerm;58902;51.436;5.980;2022-07-19T00:30:20;33.23;31.11;35.49;;
71020;Laerm;58902;51.436;5.980;2022-07-19T00:30:30;33.29;30.89;38.60;;
71020;Laerm;58902;51.436;5.980;2022-07-19T00:30:41;33.37;31.77;36.78;;
71020;Laerm;58902;51.436;5.980;2022-07-19T00:30:51;33.52;31.73;36.38;;
71020;Laerm;58902;51.436;5.980;2022-07-19T00:31:01;33.27;31.07;36.08;;
71020;Laerm;58902;51.436;5.980;2022-07-19T00:31:12;32.95;31.19;35.15;;
71020;Laerm;58902;51.436;5.980;2022-07-19T00:31:22;32.73;30.56;35.22;;
71020;Laerm;58902;51.436;5.980;2022-07-19T00:31:33;32.55;31.02;34.39;;
71020;Laerm;58902;51.436;5.980;2022-07-19T00:31:46;32.54;31.11;35.19;;
71020;Laerm;58902;51.436;5.980;2022-07-19T00:31:56;33.37;30.91;35.70;;
71020;Laerm;58902;51.436;5.980;2022-07-19T00:32:06;33.55;32.01;36.89;;
71020;Laerm;58902;51.436;5.980;2022-07-19T00:32:17;32.94;31.20;34.48;;
71020;Laerm;58902;51.436;5.980;2022-07-19T00:32:27;32.74;30.37;35.39;;
71020;Laerm;58902;51.436;5.980;2022-07-19T00:32:38;33.23;31.22;35.58;;
71020;Laerm;58902;51.436;5.980;2022-07-19T00:32:48;33.00;31.52;35.07;;
71020;Laerm;58902;51.436;5.980;2022-07-19T00:32:58;34.78;31.38;38.96;;
71020;Laerm;58902;51.436;5.980;2022-07-19T00:33:09;33.19;31.63;34.84;;
71020;Laerm;58902;51.436;5.980;2022-07-19T00:33:20;33.27;31.45;35.09;;
71020;Laerm;58902;51.436;5.980;2022-07-19T00:33:30;33.31;31.12;43.06;;
71020;Laerm;58902;51.436;5.980;2022-07-19T00:33:40;33.57;32.26;35.34;;
71020;Laerm;58902;51.436;5.980;2022-07-19T00:33:51;35.61;32.55;42.25;;
71020;Laerm;58902;51.436;5.980;2022-07-19T00:34:02;34.70;33.19;36.45;;
71020;Laerm;58902;51.436;5.980;2022-07-19T00:34:12;34.28;32.62;36.00;;
71020;Laerm;58902;51.436;5.980;2022-07-19T00:34:25;34.35;32.90;36.52;;
71020;Laerm;58902;51.436;5.980;2022-07-19T00:34:36;34.33;32.76;35.90;;
71020;Laerm;58902;51.436;5.980;2022-07-19T00:34:46;34.81;32.69;36.87;;
71020;Laerm;58902;51.436;5.980;2022-07-19T00:34:56;34.64;32.96;37.94;;
71020;Laerm;58902;51.436;5.980;2022-07-19T00:35:07;34.97;33.09;40.95;;
71020;Laerm;58902;51.436;5.980;2022-07-19T00:35:17;35.37;33.71;38.39;;
71020;Laerm;58902;51.436;5.980;2022-07-19T00:35:28;35.53;33.29;39.47;;
71020;Laerm;58902;51.436;5.980;2022-07-19T00:35:38;34.62;32.87;36.04;;
71020;Laerm;58902;51.436;5.980;2022-07-19T00:35:49;35.16;33.68;37.37;;
71020;Laerm;58902;51.436;5.980;2022-07-19T00:35:59;35.09;32.89;37.49;;
71020;Laerm;58902;51.436;5.980;2022-07-19T00:36:09;35.21;33.33;40.22;;
71020;Laerm;58902;51.436;5.980;2022-07-19T00:36:20;35.86;32.29;47.21;;
71020;Laerm;58902;51.436;5.980;2022-07-19T00:36:30;34.23;31.62;37.04;;
71020;Laerm;58902;51.436;5.980;2022-07-19T00:36:41;35.03;32.05;38.69;;
71020;Laerm;58902;51.436;5.980;2022-07-19T00:36:51;34.13;32.03;40.94;;
71020;Laerm;58902;51.436;5.980;2022-07-19T00:37:01;32.77;30.98;35.17;;
71020;Laerm;58902;51.436;5.980;2022-07-19T00:37:12;32.41;30.70;34.10;;
71020;Laerm;58902;51.436;5.980;2022-07-19T00:37:25;32.51;30.86;34.50;;
71020;Laerm;58902;51.436;5.980;2022-07-19T00:37:35;32.80;30.88;35.97;;
71020;Laerm;58902;51.436;5.980;2022-07-19T00:37:46;32.85;31.21;36.59;;
71020;Laerm;58902;51.436;5.980;2022-07-19T00:37:56;32.75;31.34;34.88;;
71020;Laerm;58902;51.436;5.980;2022-07-19T00:38:08;32.59;30.96;34.46;;
71020;Laerm;58902;51.436;5.980;2022-07-19T00:38:21;32.94;31.33;34.62;;
71020;Laerm;58902;51.436;5.980;2022-07-19T00:38:31;32.86;31.37;34.73;;
71020;Laerm;58902;51.436;5.980;2022-07-19T00:38:42;33.16;31.46;34.88;;
71020;Laerm;58902;51.436;5.980;2022-07-19T00:38:55;33.39;32.08;35.64;;
71020;Laerm;58902;51.436;5.980;2022-07-19T00:39:05;33.37;31.67;35.64;;
71020;Laerm;58902;51.436;5.980;2022-07-19T00:39:15;33.62;32.13;35.80;;
71020;Laerm;58902;51.436;5.980;2022-07-19T00:39:26;33.96;32.27;36.31;;
71020;Laerm;58902;51.436;5.980;2022-07-19T00:39:36;35.23;33.49;38.27;;
71020;Laerm;58902;51.436;5.980;2022-07-19T00:39:47;36.79;33.09;39.43;;
71020;Laerm;58902;51.436;5.980;2022-07-19T00:39:57;34.60;33.05;37.96;;
71020;Laerm;58902;51.436;5.980;2022-07-19T00:40:08;33.91;32.31;35.64;;
71020;Laerm;58902;51.436;5.980;2022-07-19T00:40:22;34.65;32.75;37.35;;
71020;Laerm;58902;51.436;5.980;2022-07-19T00:40:36;35.63;33.41;38.08;;
71020;Laerm;58902;51.436;5.980;2022-07-19T00:40:47;39.00;34.42;44.95;;
71020;Laerm;58902;51.436;5.980;2022-07-19T00:41:00;36.66;33.16;51.29;;
71020;Laerm;58902;51.436;5.980;2022-07-19T00:41:10;34.26;32.05;35.98;;
71020;Laerm;58902;51.436;5.980;2022-07-19T00:41:20;34.73;33.14;36.65;;
71020;Laerm;58902;51.436;5.980;2022-07-19T00:41:31;34.67;32.51;39.92;;
71020;Laerm;58902;51.436;5.980;2022-07-19T00:41:42;34.41;31.73;41.23;;
71020;Laerm;58902;51.436;5.980;2022-07-19T00:41:52;33.15;31.16;35.27;;
71020;Laerm;58902;51.436;5.980;2022-07-19T00:42:03;33.10;31.52;35.02;;
71020;Laerm;58902;51.436;5.980;2022-07-19T00:42:13;33.14;31.42;35.40;;
71020;Laerm;58902;51.436;5.980;2022-07-19T00:42:25;32.76;30.76;34.26;;
71020;Laerm;58902;51.436;5.980;2022-07-19T00:42:35;32.38;30.72;34.13;;
71020;Laerm;58902;51.436;5.980;2022-07-19T00:42:46;32.95;30.95;35.26;;
71020;Laerm;58902;51.436;5.980;2022-07-19T00:42:56;33.47;31.71;35.61;;
71020;Laerm;58902;51.436;5.980;2022-07-19T00:43:07;34.38;32.78;36.46;;
71020;Laerm;58902;51.436;5.980;2022-07-19T00:43:18;34.63;32.99;37.40;;
71020;Laerm;58902;51.436;5.980;2022-07-19T00:43:28;34.59;32.95;36.63;;
71020;Laerm;58902;51.436;5.980;2022-07-19T00:43:39;34.22;32.35;36.24;;
71020;Laerm;58902;51.436;5.980;2022-07-19T00:43:51;34.27;32.10;36.07;;
71020;Laerm;58902;51.436;5.980;2022-07-19T00:44:01;34.03;31.97;35.91;;
71020;Laerm;58902;51.436;5.980;2022-07-19T00:44:11;34.04;32.28;35.58;;
71020;Laerm;58902;51.436;5.980;2022-07-19T00:44:25;34.07;32.18;35.74;;
71020;Laerm;58902;51.436;5.980;2022-07-19T00:44:35;33.99;31.43;35.54;;
71020;Laerm;58902;51.436;5.980;2022-07-19T00:44:45;34.17;32.63;39.80;;
71020;Laerm;58902;51.436;5.980;2022-07-19T00:44:56;34.32;32.56;36.02;;
71020;Laerm;58902;51.436;5.980;2022-07-19T00:45:06;34.59;32.77;36.31;;
71020;Laerm;58902;51.436;5.980;2022-07-19T00:45:17;36.71;34.07;41.68;;
71020;Laerm;58902;51.436;5.980;2022-07-19T00:45:27;37.07;33.38;42.95;;
71020;Laerm;58902;51.436;5.980;2022-07-19T00:45:37;34.72;32.77;36.57;;
71020;Laerm;58902;51.436;5.980;2022-07-19T00:45:48;34.49;32.36;36.91;;
71020;Laerm;58902;51.436;5.980;2022-07-19T00:45:58;41.54;34.32;46.94;;
71020;Laerm;58902;51.436;5.980;2022-07-19T00:46:12;38.31;33.23;43.25;;
71020;Laerm;58902;51.436;5.980;2022-07-19T00:46:24;35.55;32.27;38.79;;
71020;Laerm;58902;51.436;5.980;2022-07-19T00:46:34;38.32;36.93;39.51;;
71020;Laerm;58902;51.436;5.980;2022-07-19T00:46:45;38.42;34.90;39.76;;
71020;Laerm;58902;51.436;5.980;2022-07-19T00:46:55;34.85;32.35;37.96;;
71020;Laerm;58902;51.436;5.980;2022-07-19T00:47:09;37.55;33.52;41.75;;
71020;Laerm;58902;51.436;5.980;2022-07-19T00:47:19;33.70;31.26;36.88;;
71020;Laerm;58902;51.436;5.980;2022-07-19T00:47:30;33.49;31.57;35.32;;
71020;Laerm;58902;51.436;5.980;2022-07-19T00:47:40;33.96;32.29;35.32;;
71020;Laerm;58902;51.436;5.980;2022-07-19T00:47:51;34.87;32.82;37.40;;
71020;Laerm;58902;51.436;5.980;2022-07-19T00:48:01;35.80;33.66;37.41;;
71020;Laerm;58902;51.436;5.980;2022-07-19T00:48:12;35.80;33.96;37.78;;
71020;Laerm;58902;51.436;5.980;2022-07-19T00:48:22;35.19;32.50;40.47;;
71020;Laerm;58902;51.436;5.980;2022-07-19T00:48:33;34.00;32.62;35.53;;
71020;Laerm;58902;51.436;5.980;2022-07-19T00:48:43;34.00;32.66;35.64;;
71020;Laerm;58902;51.436;5.980;2022-07-19T00:48:54;34.41;32.95;36.80;;
71020;Laerm;58902;51.436;5.980;2022-07-19T00:49:04;34.19;32.94;36.21;;
71020;Laerm;58902;51.436;5.980;2022-07-19T00:49:15;34.33;32.61;35.76;;
71020;Laerm;58902;51.436;5.980;2022-07-19T00:49:25;34.27;32.56;35.56;;
71020;Laerm;58902;51.436;5.980;2022-07-19T00:49:35;34.40;32.73;35.79;;
71020;Laerm;58902;51.436;5.980;2022-07-19T00:49:46;34.29;32.77;36.88;;
71020;Laerm;58902;51.436;5.980;2022-07-19T00:49:56;36.00;32.99;39.39;;
71020;Laerm;58902;51.436;5.980;2022-07-19T00:50:07;38.13;34.70;40.76;;
71020;Laerm;58902;51.436;5.980;2022-07-19T00:50:21;36.13;32.81;41.25;;
71020;Laerm;58902;51.436;5.980;2022-07-19T00:50:31;34.67;31.71;38.03;;
71020;Laerm;58902;51.436;5.980;2022-07-19T00:50:44;34.15;32.35;37.51;;
71020;Laerm;58902;51.436;5.980;2022-07-19T00:50:54;34.10;31.43;42.91;;
71020;Laerm;58902;51.436;5.980;2022-07-19T00:51:05;32.57;31.42;35.41;;
71020;Laerm;58902;51.436;5.980;2022-07-19T00:51:16;32.50;30.97;34.08;;
71020;Laerm;58902;51.436;5.980;2022-07-19T00:51:27;32.56;31.18;34.16;;
71020;Laerm;58902;51.436;5.980;2022-07-19T00:51:38;32.56;31.10;34.28;;
71020;Laerm;58902;51.436;5.980;2022-07-19T00:51:50;32.86;31.31;35.20;;
71020;Laerm;58902;51.436;5.980;2022-07-19T00:52:03;33.13;31.49;34.86;;
71020;Laerm;58902;51.436;5.980;2022-07-19T00:52:13;33.41;31.22;34.92;;
71020;Laerm;58902;51.436;5.980;2022-07-19T00:52:25;33.72;31.93;35.61;;
71020;Laerm;58902;51.436;5.980;2022-07-19T00:52:37;33.12;31.69;34.92;;
71020;Laerm;58902;51.436;5.980;2022-07-19T00:52:49;32.70;30.79;35.12;;
71020;Laerm;58902;51.436;5.980;2022-07-19T00:53:00;32.38;31.00;34.70;;
71020;Laerm;58902;51.436;5.980;2022-07-19T00:53:12;32.79;31.14;34.44;;
71020;Laerm;58902;51.436;5.980;2022-07-19T00:53:24;32.79;30.75;34.55;;
71020;Laerm;58902;51.436;5.980;2022-07-19T00:53:38;34.00;31.52;36.78;;
71020;Laerm;58902;51.436;5.980;2022-07-19T00:53:49;34.63;31.82;38.27;;
71020;Laerm;58902;51.436;5.980;2022-07-19T00:54:00;36.33;32.75;44.01;;
71020;Laerm;58902;51.436;5.980;2022-07-19T00:54:11;34.73;33.34;36.32;;
71020;Laerm;58902;51.436;5.980;2022-07-19T00:54:22;34.80;32.31;36.30;;
71020;Laerm;58902;51.436;5.980;2022-07-19T00:54:34;33.83;31.53;38.78;;
71020;Laerm;58902;51.436;5.980;2022-07-19T00:54:50;33.15;31.74;35.60;;
71020;Laerm;58902;51.436;5.980;2022-07-19T00:55:03;33.00;31.05;35.69;;
71020;Laerm;58902;51.436;5.980;2022-07-19T00:55:13;33.67;31.43;35.97;;
71020;Laerm;58902;51.436;5.980;2022-07-19T00:55:25;35.21;32.92;36.83;;
71020;Laerm;58902;51.436;5.980;2022-07-19T00:55:36;34.83;32.57;37.77;;
71020;Laerm;58902;51.436;5.980;2022-07-19T00:55:48;33.84;31.33;35.91;;
71020;Laerm;58902;51.436;5.980;2022-07-19T00:55:58;33.70;31.61;35.49;;
71020;Laerm;58902;51.436;5.980;2022-07-19T00:56:10;38.70;32.42;49.81;;
71020;Laerm;58902;51.436;5.980;2022-07-19T00:56:22;33.97;32.33;36.37;;
71020;Laerm;58902;51.436;5.980;2022-07-19T00:56:35;33.80;32.03;35.95;;
71020;Laerm;58902;51.436;5.980;2022-07-19T00:56:49;33.07;31.33;34.91;;
71020;Laerm;58902;51.436;5.980;2022-07-19T00:57:00;33.02;31.21;34.68;;
71020;Laerm;58902;51.436;5.980;2022-07-19T00:57:12;33.36;31.58;35.36;;
71020;Laerm;58902;51.436;5.980;2022-07-19T00:57:23;33.62;31.62;35.37;;
71020;Laerm;58902;51.436;5.980;2022-07-19T00:57:33;34.23;32.34;35.83;;
71020;Laerm;58902;51.436;5.980;2022-07-19T00:57:44;33.59;31.62;35.74;;
71020;Laerm;58902;51.436;5.980;2022-07-19T00:57:58;33.30;31.75;35.37;;
71020;Laerm;58902;51.436;5.980;2022-07-19T00:58:09;33.85;31.50;36.85;;
71020;Laerm;58902;51.436;5.980;2022-07-19T00:58:20;34.37;31.42;37.83;;
71020;Laerm;58902;51.436;5.980;2022-07-19T00:58:31;33.51;31.95;35.12;;
71020;Laerm;58902;51.436;5.980;2022-07-19T00:58:42;34.18;32.31;35.55;;
71020;Laerm;58902;51.436;5.980;2022-07-19T00:58:55;33.99;31.65;36.21;;
71020;Laerm;58902;51.436;5.980;2022-07-19T00:59:05;33.89;32.01;35.43;;
71020;Laerm;58902;51.436;5.980;2022-07-19T00:59:18;33.90;32.23;36.19;;
71020;Laerm;58902;51.436;5.980;2022-07-19T00:59:28;33.62;32.13;35.14;;
71020;Laerm;58902;51.436;5.980;2022-07-19T00:59:38;34.03;32.50;35.65;;
71020;Laerm;58902;51.436;5.980;2022-07-19T00:59:49;34.63;32.70;36.23;;
71020;Laerm;58902;51.436;5.980;2022-07-19T01:00:01;34.02;32.77;36.10;;
71020;Laerm;58902;51.436;5.980;2022-07-19T01:00:12;35.04;32.57;37.74;;
71020;Laerm;58902;51.436;5.980;2022-07-19T01:00:23;34.48;32.99;35.97;;
71020;Laerm;58902;51.436;5.980;2022-07-19T01:00:34;34.35;32.80;36.39;;
71020;Laerm;58902;51.436;5.980;2022-07-19T01:00:44;35.52;33.45;41.63;;